Time;durP1;ratioP1;P1;durP2;ratioP2;P2;SDS_P1;SDS_P2;PMS_P1;PMS_P2;Temp;Humidity;BMP_temperature;BMP_pressure;BME280_temperature;BME280_humidity;BME280_pressure;Samples;Min_cycle;Max_cycle;Signal;HPM_P1;HPM_P2
2023/10/18 00:01:23;;;;;;;7.25;4.20;;;;;;;;;;7365487;19;20364;-71
2023/10/18 00:03:48;;;;;;;7.80;4.13;;;;;;;;;;7364158;19;20008;-71
2023/10/18 00:06:18;;;;;;;7.13;4.05;;;;;;;;;;7388260;19;20106;-71
2023/10/18 00:08:45;;;;;;;8.45;4.05;;;;;;;;;;7366465;19;20500;-71
2023/10/18 00:11:11;;;;;;;9.73;4.30;;;;;;;;;;7364356;19;20588;-71
2023/10/18 00:13:36;;;;;;;8.73;4.07;;;;;;;;;;7362867;19;20022;-71
2023/10/18 00:16:05;;;;;;;6.93;4.40;;;;;;;;;;7366242;19;20094;-71
2023/10/18 00:18:31;;;;;;;9.00;4.18;;;;;;;;;;7387155;19;20006;-71
2023/10/18 00:20:59;;;;;;;8.13;4.15;;;;;;;;;;7362894;19;20011;-71
2023/10/18 00:23:26;;;;;;;6.85;4.43;;;;;;;;;;7362421;19;20632;-71
2023/10/18 00:25:51;;;;;;;7.72;4.18;;;;;;;;;;7366020;19;20006;-71
2023/10/18 00:28:16;;;;;;;10.02;4.20;;;;;;;;;;7366163;19;20114;-71
2023/10/18 00:30:42;;;;;;;8.63;4.07;;;;;;;;;;7365923;19;20146;-71
2023/10/18 00:33:07;;;;;;;9.88;4.40;;;;;;;;;;7384490;19;20009;-71
2023/10/18 00:35:32;;;;;;;8.98;4.50;;;;;;;;;;7365061;19;20134;-71
2023/10/18 00:37:58;;;;;;;9.02;4.30;;;;;;;;;;7365904;19;20018;-71
2023/10/18 00:43:27;;;;;;;6.50;4.00;;;;;;;;;;7388276;19;20078;-71
2023/10/18 00:45:53;;;;;;;7.68;3.90;;;;;;;;;;7374117;19;20010;-71
2023/10/18 00:48:28;;;;;;;8.18;4.03;;;;;;;;;;7393338;19;20014;-71
2023/10/18 00:50:55;;;;;;;7.80;4.18;;;;;;;;;;7371905;19;20026;-71
2023/10/18 00:53:31;;;;;;;9.07;4.30;;;;;;;;;;7365443;19;20026;-71
2023/10/18 00:55:57;;;;;;;7.57;4.03;;;;;;;;;;7372859;19;20002;-71
2023/10/18 00:58:27;;;;;;;7.50;3.80;;;;;;;;;;7369365;19;20086;-71
2023/10/18 01:00:53;;;;;;;7.88;4.60;;;;;;;;;;7362038;19;19995;-71
2023/10/18 01:03:28;;;;;;;10.52;4.40;;;;;;;;;;7384954;19;19998;-71
2023/10/18 01:05:59;;;;;;;9.63;4.43;;;;;;;;;;7364731;19;20010;-71
2023/10/18 01:08:24;;;;;;;10.57;4.28;;;;;;;;;;7363992;19;20546;-71
2023/10/18 01:10:51;;;;;;;9.98;4.53;;;;;;;;;;7365212;19;20043;-71
2023/10/18 01:13:20;;;;;;;8.20;4.28;;;;;;;;;;7363488;19;20006;-71
2023/10/18 01:15:45;;;;;;;7.15;4.30;;;;;;;;;;7365093;19;19998;-71
2023/10/18 01:18:11;;;;;;;8.00;4.70;;;;;;;;;;7386560;19;20451;-71
2023/10/18 01:20:40;;;;;;;7.90;4.30;;;;;;;;;;7363285;19;20366;-71
2023/10/18 01:23:07;;;;;;;11.52;4.35;;;;;;;;;;7363603;19;20053;-71
2023/10/18 01:25:33;;;;;;;8.73;4.57;;;;;;;;;;7372051;19;20035;-70
2023/10/18 01:27:58;;;;;;;9.38;4.93;;;;;;;;;;7396857;19;20003;-70
2023/10/18 01:30:23;;;;;;;8.77;4.32;;;;;;;;;;7413183;19;20356;-70
2023/10/18 01:32:49;;;;;;;10.35;4.57;;;;;;;;;;7383271;19;20007;-71
2023/10/18 01:35:15;;;;;;;11.13;5.10;;;;;;;;;;7380511;19;20114;-71
2023/10/18 01:37:43;;;;;;;9.23;4.80;;;;;;;;;;7382250;19;20011;-71
2023/10/18 01:40:23;;;;;;;7.68;4.50;;;;;;;;;;7379719;19;20010;-72
2023/10/18 01:42:55;;;;;;;11.50;4.73;;;;;;;;;;7387637;19;19999;-71
2023/10/18 01:45:22;;;;;;;8.45;4.55;;;;;;;;;;7406782;19;19995;-71
2023/10/18 01:47:49;;;;;;;8.40;4.32;;;;;;;;;;7384928;19;20082;-71
2023/10/18 01:50:14;;;;;;;7.70;4.40;;;;;;;;;;7384542;19;20019;-71
2023/10/18 01:52:41;;;;;;;9.10;4.43;;;;;;;;;;7380047;19;20013;-71
2023/10/18 01:55:09;;;;;;;6.82;4.32;;;;;;;;;;7374564;19;20003;-71
2023/10/18 01:57:34;;;;;;;8.05;4.43;;;;;;;;;;7390981;19;20002;-71
2023/10/18 02:00:00;;;;;;;10.18;4.60;;;;;;;;;;7398264;19;20003;-71
2023/10/18 02:02:26;;;;;;;9.13;4.60;;;;;;;;;;7377929;19;20066;-71
2023/10/18 02:04:53;;;;;;;7.28;4.43;;;;;;;;;;7368015;19;20013;-71
2023/10/18 02:07:19;;;;;;;9.73;4.72;;;;;;;;;;7378200;19;19999;-71
2023/10/18 02:09:52;;;;;;;9.32;5.18;;;;;;;;;;7398971;19;20031;-71
2023/10/18 02:12:21;;;;;;;9.73;4.97;;;;;;;;;;7426221;19;20025;-71
2023/10/18 02:14:50;;;;;;;9.95;4.80;;;;;;;;;;7408879;19;19998;-71
2023/10/18 02:17:18;;;;;;;7.75;4.93;;;;;;;;;;7408985;19;20094;-71
2023/10/18 02:19:44;;;;;;;7.65;4.18;;;;;;;;;;7406380;19;20042;-71
2023/10/18 02:22:10;;;;;;;10.00;4.72;;;;;;;;;;7407016;19;20014;-71
2023/10/18 02:24:36;;;;;;;9.38;4.63;;;;;;;;;;7407597;19;20058;-71
2023/10/18 02:27:01;;;;;;;7.30;4.45;;;;;;;;;;7432172;19;20037;-71
2023/10/18 02:29:34;;;;;;;8.20;4.65;;;;;;;;;;7408175;19;20003;-71
2023/10/18 02:32:04;;;;;;;7.68;4.60;;;;;;;;;;7407738;19;20011;-71
2023/10/18 02:34:33;;;;;;;8.23;4.43;;;;;;;;;;7406254;19;20043;-71
2023/10/18 02:37:00;;;;;;;9.82;4.82;;;;;;;;;;7409625;19;20007;-71
2023/10/18 02:39:32;;;;;;;8.55;4.82;;;;;;;;;;7428055;19;20011;-71
2023/10/18 02:41:58;;;;;;;11.43;5.00;;;;;;;;;;7402304;19;20027;-71
2023/10/18 02:44:23;;;;;;;9.80;4.78;;;;;;;;;;7403053;19;19998;-71
2023/10/18 02:46:54;;;;;;;10.77;5.20;;;;;;;;;;7402637;19;20050;-71
2023/10/18 02:49:21;;;;;;;9.85;4.65;;;;;;;;;;7401932;19;19999;-71
2023/10/18 02:51:46;;;;;;;9.30;4.93;;;;;;;;;;7403898;19;20039;-71
2023/10/18 02:56:41;;;;;;;9.75;4.40;;;;;;;;;;7398579;19;20012;-71
2023/10/18 02:59:07;;;;;;;10.50;5.10;;;;;;;;;;7398150;19;20065;-71
2023/10/18 03:01:40;;;;;;;10.73;4.90;;;;;;;;;;7403342;19;20328;-72
2023/10/18 03:04:16;;;;;;;8.32;4.35;;;;;;;;;;7402307;19;20015;-71
2023/10/18 03:06:43;;;;;;;11.73;4.85;;;;;;;;;;7400863;19;20007;-71
2023/10/18 03:09:26;;;;;;;8.82;5.30;;;;;;;;;;7423048;19;19994;-71
2023/10/18 03:11:55;;;;;;;11.07;4.93;;;;;;;;;;7405376;19;20013;-71
2023/10/18 03:14:23;;;;;;;9.52;5.28;;;;;;;;;;7401598;19;20007;-71
2023/10/18 03:16:55;;;;;;;11.98;4.97;;;;;;;;;;7399041;19;20043;-71
2023/10/18 03:19:22;;;;;;;8.60;5.32;;;;;;;;;;7397585;19;20068;-71
2023/10/18 03:21:48;;;;;;;9.00;4.80;;;;;;;;;;7401502;19;19995;-71
2023/10/18 03:24:13;;;;;;;11.20;4.72;;;;;;;;;;7417596;19;20019;-71
2023/10/18 03:26:40;;;;;;;10.35;5.35;;;;;;;;;;7396229;19;20003;-71
2023/10/18 03:29:06;;;;;;;8.85;5.05;;;;;;;;;;7395021;19;20005;-71
2023/10/18 03:31:35;;;;;;;8.70;4.75;;;;;;;;;;7396046;19;20030;-71
2023/10/18 03:34:02;;;;;;;7.25;5.10;;;;;;;;;;7366172;19;20494;-72
2023/10/18 03:36:35;;;;;;;7.75;4.78;;;;;;;;;;7392442;19;20003;-71
2023/10/18 03:39:15;;;;;;;9.63;5.30;;;;;;;;;;7367349;19;20018;-72
2023/10/18 03:41:40;;;;;;;8.55;4.90;;;;;;;;;;7367394;19;20626;-71
2023/10/18 03:44:09;;;;;;;6.93;4.50;;;;;;;;;;7366703;19;20027;-71
2023/10/18 03:46:38;;;;;;;10.25;5.32;;;;;;;;;;7369162;19;20022;-71
2023/10/18 03:49:10;;;;;;;9.02;5.15;;;;;;;;;;7367256;19;20006;-71
2023/10/18 03:51:37;;;;;;;;;;;;;;;;;;7377649;19;20025;-71
2023/10/18 03:54:03;;;;;;;8.02;5.03;;;;;;;;;;7385866;19;19919;-71
2023/10/18 03:56:32;;;;;;;11.82;5.57;;;;;;;;;;7366659;19;20013;-71
2023/10/18 03:59:19;;;;;;;9.00;5.40;;;;;;;;;;7366573;19;20093;-71
2023/10/18 04:01:55;;;;;;;9.63;5.35;;;;;;;;;;7363783;19;20019;-71
2023/10/18 04:04:21;;;;;;;9.57;4.97;;;;;;;;;;7366088;19;20112;-71
2023/10/18 04:06:50;;;;;;;11.93;5.22;;;;;;;;;;7370153;19;20520;-71
2023/10/18 04:09:16;;;;;;;10.70;5.95;;;;;;;;;;7397683;19;20006;-71
2023/10/18 04:11:42;;;;;;;9.65;5.75;;;;;;;;;;7369940;19;20022;-71
2023/10/18 04:14:10;;;;;;;9.40;5.15;;;;;;;;;;7371786;19;20006;-72
2023/10/18 04:16:36;;;;;;;11.88;6.15;;;;;;;;;;7372077;19;20025;-72
2023/10/18 04:19:02;;;;;;;9.57;5.78;;;;;;;;;;7369658;19;20414;-72
2023/10/18 04:21:27;;;;;;;9.18;5.80;;;;;;;;;;7387780;19;19999;-72
2023/10/18 04:23:56;;;;;;;9.20;5.30;;;;;;;;;;7363171;19;20012;-72
2023/10/18 04:26:25;;;;;;;9.05;5.60;;;;;;;;;;7366921;19;20005;-72
2023/10/18 04:28:57;;;;;;;10.60;5.25;;;;;;;;;;7371767;19;20042;-72
2023/10/18 04:31:23;;;;;;;10.38;5.30;;;;;;;;;;7389676;19;20010;-72
2023/10/18 04:33:49;;;;;;;13.20;5.70;;;;;;;;;;7383787;19;19998;-73
2023/10/18 04:36:16;;;;;;;10.95;6.00;;;;;;;;;;7389557;19;20006;-73
2023/10/18 04:42:06;;;;;;;9.40;5.30;;;;;;;;;;7361829;19;20045;-72
2023/10/18 04:44:34;;;;;;;11.13;5.90;;;;;;;;;;7362666;19;20850;-72
2023/10/18 04:47:03;;;;;;;8.85;5.50;;;;;;;;;;7363751;19;20126;-72
2023/10/18 04:49:38;;;;;;;11.10;5.72;;;;;;;;;;7363099;19;20634;-73
2023/10/18 04:52:17;;;;;;;12.18;6.13;;;;;;;;;;7362260;19;20490;-71
2023/10/18 04:54:42;;;;;;;12.23;6.50;;;;;;;;;;7364854;19;20009;-72
2023/10/18 04:57:11;;;;;;;14.40;6.03;;;;;;;;;;7387143;19;19999;-73
2023/10/18 04:59:46;;;;;;;8.75;5.35;;;;;;;;;;7365226;19;20500;-72
2023/10/18 05:02:18;;;;;;;11.38;6.07;;;;;;;;;;7366139;19;20006;-71
2023/10/18 05:04:46;;;;;;;10.38;6.07;;;;;;;;;;7365259;19;20006;-73
2023/10/18 05:09:43;;;;;;;8.90;5.70;;;;;;;;;;7366779;19;20009;-71
2023/10/18 05:14:53;;;;;;;15.52;6.22;;;;;;;;;;7364202;19;20760;-68
2023/10/18 05:17:22;;;;;;;11.70;6.05;;;;;;;;;;7349970;19;20014;-68
2023/10/18 05:19:49;;;;;;;9.10;6.32;;;;;;;;;;7359196;19;20006;-73
2023/10/18 05:22:17;;;;;;;10.35;6.20;;;;;;;;;;7363032;19;20476;-73
2023/10/18 05:24:55;;;;;;;12.32;6.95;;;;;;;;;;7365202;19;20539;-73
2023/10/18 05:27:24;;;;;;;12.82;6.30;;;;;;;;;;7388131;19;20006;-73
2023/10/18 05:29:55;;;;;;;11.43;6.57;;;;;;;;;;7365766;19;20011;-73
2023/10/18 05:35:03;;;;;;;10.93;6.53;;;;;;;;;;7363979;19;20084;-73
2023/10/18 05:37:33;;;;;;;11.15;6.43;;;;;;;;;;7364685;19;20532;-73
2023/10/18 05:42:46;;;;;;;12.13;6.72;;;;;;;;;;7365378;19;20006;-71
2023/10/18 05:45:12;;;;;;;10.43;6.38;;;;;;;;;;7386487;19;20781;-73
2023/10/18 05:47:37;;;;;;;8.57;5.93;;;;;;;;;;7367577;19;20025;-74
2023/10/18 05:50:04;;;;;;;14.52;7.15;;;;;;;;;;7371426;19;20590;-72
2023/10/18 05:52:38;;;;;;;12.23;6.63;;;;;;;;;;7370868;19;20018;-73
2023/10/18 05:55:08;;;;;;;11.85;7.25;;;;;;;;;;7370749;19;20122;-71
2023/10/18 05:57:34;;;;;;;14.20;6.87;;;;;;;;;;7392701;19;20080;-72
2023/10/18 06:00:00;;;;;;;12.40;6.38;;;;;;;;;;7381591;19;20264;-72
2023/10/18 06:02:26;;;;;;;12.20;6.32;;;;;;;;;;7370273;19;20027;-71
2023/10/18 06:04:55;;;;;;;12.15;7.00;;;;;;;;;;7370805;19;20006;-73
2023/10/18 06:07:23;;;;;;;12.60;7.60;;;;;;;;;;7370996;19;20003;-73
2023/10/18 06:09:58;;;;;;;12.07;7.10;;;;;;;;;;7371707;19;20321;-73
2023/10/18 06:12:27;;;;;;;11.07;6.80;;;;;;;;;;7414162;19;19994;-72
2023/10/18 06:14:52;;;;;;;15.10;7.68;;;;;;;;;;7401934;19;20010;-72
2023/10/18 06:17:46;;;;;;;12.85;7.45;;;;;;;;;;7378574;19;20031;-73
2023/10/18 06:20:28;;;;;;;13.52;7.50;;;;;;;;;;7367033;19;20343;-73
2023/10/18 06:23:08;;;;;;;16.50;8.30;;;;;;;;;;7368964;19;20801;-73
2023/10/18 06:25:35;;;;;;;10.52;7.18;;;;;;;;;;7370755;19;20180;-73
2023/10/18 06:28:01;;;;;;;13.27;7.45;;;;;;;;;;7357780;19;20019;-73
2023/10/18 06:30:26;;;;;;;15.98;7.93;;;;;;;;;;7395892;19;20056;-73
2023/10/18 06:32:51;;;;;;;11.75;7.78;;;;;;;;;;7367729;19;20010;-72
2023/10/18 06:35:26;;;;;;;14.82;7.90;;;;;;;;;;7368862;19;20027;-72
2023/10/18 06:37:52;;;;;;;11.60;7.40;;;;;;;;;;7370713;19;20006;-73
2023/10/18 06:43:03;;;;;;;12.00;7.20;;;;;;;;;;7367987;19;20050;-72
2023/10/18 06:45:33;;;;;;;14.13;7.60;;;;;;;;;;7391245;19;20022;-74
2023/10/18 06:47:58;;;;;;;13.65;7.65;;;;;;;;;;7370476;19;20739;-73
2023/10/18 06:50:27;;;;;;;16.63;8.20;;;;;;;;;;7369329;19;20086;-73
2023/10/18 06:52:55;;;;;;;12.90;7.97;;;;;;;;;;7367324;19;20502;-73
2023/10/18 06:55:35;;;;;;;14.70;8.00;;;;;;;;;;7367705;19;20081;-71
2023/10/18 06:58:12;;;;;;;12.13;7.72;;;;;;;;;;7368959;19;20030;-73
2023/10/18 07:00:43;;;;;;;14.32;7.97;;;;;;;;;;7366243;19;20399;-72
2023/10/18 07:03:16;;;;;;;11.50;7.80;;;;;;;;;;7388922;19;20074;-73
2023/10/18 07:05:54;;;;;;;14.70;7.38;;;;;;;;;;7368872;19;20015;-72
2023/10/18 07:08:20;;;;;;;12.02;7.15;;;;;;;;;;7370744;19;20006;-72
2023/10/18 07:10:53;;;;;;;13.65;8.10;;;;;;;;;;7369282;19;20011;-72
2023/10/18 07:13:21;;;;;;;11.13;7.18;;;;;;;;;;7368465;19;20010;-72
2023/10/18 07:15:46;;;;;;;14.13;8.70;;;;;;;;;;7370189;19;20006;-72
2023/10/18 07:18:14;;;;;;;12.50;7.63;;;;;;;;;;7396171;19;20003;-72
2023/10/18 07:20:41;;;;;;;17.48;8.32;;;;;;;;;;7375478;19;20398;-73
2023/10/18 07:23:10;;;;;;;14.75;8.07;;;;;;;;;;7374904;19;20030;-73
2023/10/18 07:25:37;;;;;;;13.95;7.50;;;;;;;;;;7374924;19;20054;-73
2023/10/18 07:28:03;;;;;;;13.00;8.35;;;;;;;;;;7374260;19;20013;-73
2023/10/18 07:30:42;;;;;;;11.23;7.20;;;;;;;;;;7394188;19;20455;-71
2023/10/18 07:33:09;;;;;;;13.90;8.10;;;;;;;;;;7367602;19;20039;-73
2023/10/18 07:35:36;;;;;;;12.93;7.88;;;;;;;;;;7368072;19;20515;-72
2023/10/18 07:38:01;;;;;;;14.32;7.90;;;;;;;;;;7381657;19;20006;-71
2023/10/18 07:40:33;;;;;;;13.48;8.27;;;;;;;;;;7394124;19;20014;-71
2023/10/18 07:43:05;;;;;;;12.55;7.47;;;;;;;;;;7393333;19;20066;-71
2023/10/18 07:45:30;;;;;;;11.68;7.53;;;;;;;;;;7396956;19;20017;-71
2023/10/18 07:47:55;;;;;;;10.65;6.75;;;;;;;;;;7369303;19;20010;-72
2023/10/18 07:50:34;;;;;;;13.23;7.78;;;;;;;;;;7366364;19;20002;-72
2023/10/18 07:53:01;;;;;;;12.00;7.55;;;;;;;;;;7364811;19;20047;-72
2023/10/18 07:55:36;;;;;;;12.15;8.07;;;;;;;;;;7366917;19;20070;-73
2023/10/18 07:58:06;;;;;;;13.07;7.28;;;;;;;;;;7366791;19;20014;-72
2023/10/18 08:00:35;;;;;;;13.63;7.38;;;;;;;;;;7388382;19;20006;-72
2023/10/18 08:03:00;;;;;;;15.05;7.85;;;;;;;;;;7364778;19;20360;-72
2023/10/18 08:05:43;;;;;;;12.50;7.63;;;;;;;;;;7365879;19;20026;-73
2023/10/18 08:08:11;;;;;;;23.13;12.85;;;;;;;;;;7367120;19;20015;-73
2023/10/18 08:10:38;;;;;;;16.38;10.80;;;;;;;;;;7365260;19;20049;-72
2023/10/18 08:13:07;;;;;;;11.73;7.55;;;;;;;;;;7364029;19;20182;-72
2023/10/18 08:15:36;;;;;;;14.57;7.80;;;;;;;;;;7388456;19;20066;-72
2023/10/18 08:18:17;;;;;;;16.40;8.13;;;;;;;;;;7367860;19;20580;-73
2023/10/18 08:26:03;;;;;;;13.90;8.43;;;;;;;;;;7365622;19;20002;-72
2023/10/18 08:28:39;;;;;;;10.95;7.55;;;;;;;;;;7362809;19;20110;-74
2023/10/18 08:31:26;;;;;;;13.07;8.00;;;;;;;;;;7365391;19;20074;-73
2023/10/18 08:33:54;;;;;;;16.73;7.65;;;;;;;;;;7365470;19;20070;-73
2023/10/18 08:36:29;;;;;;;12.40;7.88;;;;;;;;;;7390487;19;20012;-73
2023/10/18 08:38:55;;;;;;;15.43;8.15;;;;;;;;;;7366561;19;20070;-73
2023/10/18 08:41:25;;;;;;;14.50;8.10;;;;;;;;;;7365373;19;20104;-73
2023/10/18 08:43:57;;;;;;;10.98;7.93;;;;;;;;;;7362405;19;20006;-71
2023/10/18 08:46:24;;;;;;;13.18;7.97;;;;;;;;;;7366061;19;20568;-73
2023/10/18 08:48:51;;;;;;;13.35;8.27;;;;;;;;;;7365732;19;20024;-72
2023/10/18 08:51:21;;;;;;;13.48;8.02;;;;;;;;;;7388112;19;20004;-72
2023/10/18 08:53:47;;;;;;;15.05;7.90;;;;;;;;;;7363169;19;20397;-72
2023/10/18 08:56:14;;;;;;;13.27;8.02;;;;;;;;;;7365566;19;19998;-73
2023/10/18 08:58:42;;;;;;;15.88;7.65;;;;;;;;;;7366073;19;20409;-72
2023/10/18 09:01:09;;;;;;;13.25;7.35;;;;;;;;;;7365553;19;20007;-72
2023/10/18 09:03:35;;;;;;;13.02;8.35;;;;;;;;;;7374518;19;20006;-72
2023/10/18 09:06:05;;;;;;;12.93;7.25;;;;;;;;;;7385890;19;19998;-73
2023/10/18 09:08:39;;;;;;;14.13;7.97;;;;;;;;;;7380650;19;20008;-72
2023/10/18 09:11:27;;;;;;;11.23;6.55;;;;;;;;;;7396258;19;19999;-72
2023/10/18 09:16:40;;;;;;;10.82;6.93;;;;;;;;;;7365592;19;20052;-73
2023/10/18 09:19:09;;;;;;;14.20;6.93;;;;;;;;;;7365265;19;20616;-73
2023/10/18 09:21:36;;;;;;;9.10;6.40;;;;;;;;;;7374906;19;20023;-72
2023/10/18 09:24:11;;;;;;;11.07;7.20;;;;;;;;;;7391015;19;20006;-74
2023/10/18 09:26:40;;;;;;;10.52;7.07;;;;;;;;;;7372171;19;20006;-72
2023/10/18 09:29:08;;;;;;;12.05;7.00;;;;;;;;;;7373178;19;20103;-73
2023/10/18 09:31:33;;;;;;;11.52;6.80;;;;;;;;;;7371970;19;20021;-72
2023/10/18 09:33:59;;;;;;;10.32;6.90;;;;;;;;;;7369018;19;20066;-72
2023/10/18 09:36:28;;;;;;;10.85;7.15;;;;;;;;;;7395942;19;20011;-72
2023/10/18 09:38:55;;;;;;;10.30;6.50;;;;;;;;;;7373038;19;20119;-72
2023/10/18 09:41:21;;;;;;;9.50;6.30;;;;;;;;;;7371421;19;20098;-71
2023/10/18 09:43:47;;;;;;;12.80;7.03;;;;;;;;;;7370217;19;20007;-72
2023/10/18 09:46:14;;;;;;;10.13;7.00;;;;;;;;;;7372662;19;20607;-72
2023/10/18 09:48:42;;;;;;;10.98;7.28;;;;;;;;;;7370983;19;20006;-72
2023/10/18 09:51:09;;;;;;;11.35;7.00;;;;;;;;;;7394135;19;20010;-71
2023/10/18 09:53:43;;;;;;;9.70;6.82;;;;;;;;;;7368202;19;20015;-71
2023/10/18 09:56:14;;;;;;;10.32;6.72;;;;;;;;;;7371021;19;20456;-73
2023/10/18 09:58:44;;;;;;;11.57;6.88;;;;;;;;;;7371305;19;20018;-71
2023/10/18 10:01:14;;;;;;;14.13;6.93;;;;;;;;;;7371211;19;20436;-72
2023/10/18 10:03:52;;;;;;;9.63;6.03;;;;;;;;;;7368630;19;20012;-72
2023/10/18 10:06:26;;;;;;;12.07;6.97;;;;;;;;;;7394121;19;20357;-72
2023/10/18 10:09:12;;;;;;;12.88;7.93;;;;;;;;;;7371442;19;20555;-72
2023/10/18 10:11:47;;;;;;;10.77;6.28;;;;;;;;;;7370261;19;20021;-73
2023/10/18 10:14:17;;;;;;;9.60;6.55;;;;;;;;;;7371380;19;20014;-72
2023/10/18 10:16:54;;;;;;;13.18;6.47;;;;;;;;;;7371754;19;20013;-71
2023/10/18 10:19:28;;;;;;;11.07;6.63;;;;;;;;;;7373383;19;20464;-71
2023/10/18 10:21:55;;;;;;;9.23;6.35;;;;;;;;;;7369993;19;20007;-72
2023/10/18 10:24:33;;;;;;;9.65;5.72;;;;;;;;;;7386819;19;20033;-72
2023/10/18 10:29:59;;;;;;;13.38;5.97;;;;;;;;;;7369736;19;20361;-73
2023/10/18 10:32:27;;;;;;;10.90;6.07;;;;;;;;;;7369336;19;20027;-72
2023/10/18 10:35:24;;;;;;;8.90;5.70;;;;;;;;;;7370525;19;20248;-74
2023/10/18 10:37:55;;;;;;;10.18;5.40;;;;;;;;;;7370439;19;20018;-71
2023/10/18 10:43:02;;;;;;;9.88;5.80;;;;;;;;;;7375587;19;20023;-73
2023/10/18 10:45:41;;;;;;;9.25;5.85;;;;;;;;;;7401814;19;20495;-72
2023/10/18 10:48:16;;;;;;;7.72;5.05;;;;;;;;;;7377714;19;20010;-72
2023/10/18 10:50:42;;;;;;;8.38;5.38;;;;;;;;;;7376424;19;20097;-71
2023/10/18 10:53:08;;;;;;;9.73;5.63;;;;;;;;;;7373090;19;20091;-73
2023/10/18 10:55:34;;;;;;;10.73;5.57;;;;;;;;;;7380483;19;19999;-71
2023/10/18 10:58:15;;;;;;;9.40;5.82;;;;;;;;;;7379042;19;20009;-68
2023/10/18 11:01:06;;;;;;;9.65;5.30;;;;;;;;;;7379234;19;20493;-68
2023/10/18 11:03:54;;;;;;;8.88;5.18;;;;;;;;;;7397934;19;20272;-71
2023/10/18 11:06:24;;;;;;;8.77;4.97;;;;;;;;;;7370535;19;20104;-71
2023/10/18 11:08:56;;;;;;;9.40;4.80;;;;;;;;;;7369091;19;20094;-71
2023/10/18 11:11:22;;;;;;;8.77;4.80;;;;;;;;;;7369691;19;20014;-71
2023/10/18 11:13:49;;;;;;;8.05;4.75;;;;;;;;;;7369631;19;20040;-71
2023/10/18 11:16:17;;;;;;;9.18;4.13;;;;;;;;;;7374600;19;20138;-71
2023/10/18 11:18:47;;;;;;;7.47;4.50;;;;;;;;;;7383124;19;19994;-71
2023/10/18 11:21:24;;;;;;;7.85;4.60;;;;;;;;;;7401470;19;20003;-72
2023/10/18 11:24:11;;;;;;;7.72;4.53;;;;;;;;;;7379768;19;20026;-72
2023/10/18 11:26:41;;;;;;;6.75;4.22;;;;;;;;;;7378228;19;20006;-72
2023/10/18 11:29:06;;;;;;;7.35;4.13;;;;;;;;;;7379959;19;20010;-71
2023/10/18 11:31:33;;;;;;;9.15;6.50;;;;;;;;;;7378781;19;20021;-73
2023/10/18 11:34:04;;;;;;;13.38;6.82;;;;;;;;;;7377888;19;20010;-72
2023/10/18 11:36:32;;;;;;;;;;;;;;;;;;7401323;19;20030;-72
2023/10/18 11:39:07;;;;;;;7.70;4.13;;;;;;;;;;7378178;19;19933;-72
2023/10/18 11:41:37;;;;;;;7.93;3.90;;;;;;;;;;7379601;19;20003;-72
2023/10/18 11:44:10;;;;;;;7.13;3.85;;;;;;;;;;7375080;19;20006;-71
2023/10/18 11:46:46;;;;;;;6.35;3.63;;;;;;;;;;7380826;19;20006;-73
2023/10/18 11:49:18;;;;;;;5.72;3.83;;;;;;;;;;7380976;19;20486;-70
2023/10/18 11:51:48;;;;;;;6.50;3.63;;;;;;;;;;7376890;19;20027;-71
2023/10/18 11:54:31;;;;;;;7.85;3.90;;;;;;;;;;7397238;19;19994;-71
2023/10/18 11:56:57;;;;;;;7.85;3.80;;;;;;;;;;7377025;19;20370;-72
2023/10/18 11:59:24;;;;;;;5.97;3.60;;;;;;;;;;7377250;19;20021;-73
2023/10/18 12:01:57;;;;;;;6.53;3.67;;;;;;;;;;7380089;19;20016;-75
2023/10/18 12:04:29;;;;;;;6.60;3.65;;;;;;;;;;7377304;19;20013;-72
2023/10/18 12:06:56;;;;;;;8.65;3.88;;;;;;;;;;7376905;19;20011;-72
2023/10/18 12:11:48;;;;;;;7.88;3.80;;;;;;;;;;7375506;19;20748;-72
2023/10/18 12:14:13;;;;;;;6.53;3.17;;;;;;;;;;7376032;19;20006;-72
2023/10/18 12:16:41;;;;;;;5.90;3.53;;;;;;;;;;7382880;19;20025;-72
2023/10/18 12:19:06;;;;;;;8.82;4.35;;;;;;;;;;7380987;19;20010;-72
2023/10/18 12:21:32;;;;;;;9.40;4.03;;;;;;;;;;7402114;19;20069;-72
2023/10/18 12:23:58;;;;;;;6.10;3.80;;;;;;;;;;7381141;19;20010;-72
2023/10/18 12:26:24;;;;;;;8.27;3.42;;;;;;;;;;7381763;19;20002;-71
2023/10/18 12:28:55;;;;;;;7.97;3.70;;;;;;;;;;7381341;19;20318;-72
2023/10/18 12:31:26;;;;;;;6.18;3.90;;;;;;;;;;7380787;19;20414;-72
2023/10/18 12:33:57;;;;;;;7.80;3.72;;;;;;;;;;7380547;19;20030;-72
2023/10/18 12:36:23;;;;;;;7.18;3.85;;;;;;;;;;7400904;19;20014;-72
2023/10/18 12:38:55;;;;;;;6.00;3.10;;;;;;;;;;7376545;19;20010;-72
2023/10/18 12:41:31;;;;;;;8.00;3.70;;;;;;;;;;7372126;19;20027;-73
2023/10/18 12:43:57;;;;;;;7.95;4.13;;;;;;;;;;7371535;19;20006;-73
2023/10/18 12:46:22;;;;;;;7.72;3.63;;;;;;;;;;7371327;19;20038;-74
2023/10/18 12:48:49;;;;;;;7.97;3.50;;;;;;;;;;7369635;19;20021;-71
2023/10/18 12:51:17;;;;;;;9.40;3.65;;;;;;;;;;7393864;19;20556;-74
2023/10/18 12:53:55;;;;;;;7.13;3.33;;;;;;;;;;7369237;19;20002;-72
2023/10/18 12:56:30;;;;;;;7.00;3.53;;;;;;;;;;7371293;19;20026;-74
2023/10/18 13:01:33;;;;;;;8.57;3.67;;;;;;;;;;7372312;19;20021;-73
2023/10/18 13:03:59;;;;;;;8.95;3.50;;;;;;;;;;7369314;19;20007;-73
2023/10/18 13:06:31;;;;;;;9.38;3.67;;;;;;;;;;7391822;19;20010;-72
2023/10/18 13:14:17;;;;;;;8.05;3.97;;;;;;;;;;7377417;19;20040;-72
2023/10/18 13:16:43;;;;;;;6.85;3.30;;;;;;;;;;7369196;19;20009;-72
2023/10/18 13:19:15;;;;;;;7.43;3.65;;;;;;;;;;7366143;19;20465;-73
2023/10/18 13:21:43;;;;;;;6.63;3.35;;;;;;;;;;7366015;19;20483;-73
2023/10/18 13:24:16;;;;;;;7.72;3.97;;;;;;;;;;7386072;19;20017;-72
2023/10/18 13:26:46;;;;;;;6.93;3.22;;;;;;;;;;7364835;19;20015;-73
2023/10/18 13:29:29;;;;;;;7.07;3.42;;;;;;;;;;7366688;19;20299;-72
2023/10/18 13:31:58;;;;;;;9.55;3.60;;;;;;;;;;7366087;19;20527;-71
2023/10/18 13:34:24;;;;;;;9.27;3.33;;;;;;;;;;7365993;19;20013;-72
2023/10/18 13:36:54;;;;;;;10.23;3.70;;;;;;;;;;7364977;19;20011;-71
2023/10/18 13:39:22;;;;;;;7.65;3.35;;;;;;;;;;7382247;19;20460;-74
2023/10/18 13:41:49;;;;;;;8.02;3.30;;;;;;;;;;7363579;19;20015;-73
2023/10/18 13:44:19;;;;;;;5.38;3.20;;;;;;;;;;7362902;19;20010;-73
2023/10/18 13:46:50;;;;;;;6.28;3.17;;;;;;;;;;7366312;19;20007;-73
2023/10/18 13:49:17;;;;;;;;;;;;;;;;;;7366371;19;20519;-73
2023/10/18 13:51:43;;;;;;;6.03;3.20;;;;;;;;;;7364649;19;20352;-73
2023/10/18 13:54:08;;;;;;;16.30;10.05;;;;;;;;;;7385855;19;20014;-72
2023/10/18 13:56:38;;;;;;;11.13;5.05;;;;;;;;;;7362938;19;20017;-73
2023/10/18 13:59:04;;;;;;;10.75;4.88;;;;;;;;;;7362690;19;20025;-73
2023/10/18 14:01:31;;;;;;;6.35;3.25;;;;;;;;;;7368468;19;20414;-73
2023/10/18 14:03:59;;;;;;;7.75;3.28;;;;;;;;;;7370206;19;19992;-74
2023/10/18 14:06:25;;;;;;;7.10;3.15;;;;;;;;;;7397110;19;20017;-73
2023/10/18 14:08:50;;;;;;;9.38;3.60;;;;;;;;;;7377483;19;20686;-74
2023/10/18 14:11:17;;;;;;;10.02;3.28;;;;;;;;;;7384723;19;20018;-74
2023/10/18 14:13:47;;;;;;;6.95;3.55;;;;;;;;;;7381721;19;20015;-73
2023/10/18 14:16:16;;;;;;;10.35;3.25;;;;;;;;;;7385609;19;20010;-73
2023/10/18 14:18:43;;;;;;;8.70;3.75;;;;;;;;;;7385044;19;20452;-72
2023/10/18 14:21:14;;;;;;;5.07;2.97;;;;;;;;;;7399743;19;19995;-73
2023/10/18 14:23:41;;;;;;;7.10;3.50;;;;;;;;;;7383394;19;20018;-73
2023/10/18 14:26:07;;;;;;;10.55;3.47;;;;;;;;;;7389167;19;20413;-74
2023/10/18 14:28:33;;;;;;;6.88;3.22;;;;;;;;;;7383397;19;20003;-74
2023/10/18 14:30:59;;;;;;;7.28;3.55;;;;;;;;;;7374662;19;20009;-73
2023/10/18 14:33:28;;;;;;;8.38;3.58;;;;;;;;;;7393729;19;20006;-74
2023/10/18 14:35:54;;;;;;;7.60;3.35;;;;;;;;;;7373631;19;20009;-73
2023/10/18 14:38:20;;;;;;;5.95;3.03;;;;;;;;;;7372055;19;20113;-73
2023/10/18 14:40:46;;;;;;;6.60;3.20;;;;;;;;;;7374543;19;20038;-72
2023/10/18 14:43:12;;;;;;;7.28;3.50;;;;;;;;;;7374559;19;20034;-73
2023/10/18 14:45:40;;;;;;;7.20;2.90;;;;;;;;;;7372260;19;20070;-73
2023/10/18 14:48:08;;;;;;;6.85;3.17;;;;;;;;;;7392514;19;20047;-74
2023/10/18 14:50:35;;;;;;;6.55;3.50;;;;;;;;;;7370376;19;20117;-72
2023/10/18 14:53:01;;;;;;;8.45;3.40;;;;;;;;;;7367677;19;20014;-73
2023/10/18 14:55:28;;;;;;;8.75;3.15;;;;;;;;;;7371182;19;20053;-73
2023/10/18 14:57:54;;;;;;;10.05;3.35;;;;;;;;;;7371521;19;20003;-73
2023/10/18 15:00:19;;;;;;;6.07;3.20;;;;;;;;;;7390618;19;20015;-72
2023/10/18 15:02:52;;;;;;;7.75;3.40;;;;;;;;;;7369216;19;20665;-72
2023/10/18 15:05:18;;;;;;;8.52;3.35;;;;;;;;;;7370151;19;20699;-73
2023/10/18 15:07:47;;;;;;;11.32;3.38;;;;;;;;;;7370672;19;20003;-74
2023/10/18 15:10:13;;;;;;;8.30;3.30;;;;;;;;;;7369721;19;20059;-72
2023/10/18 15:12:38;;;;;;;7.25;3.58;;;;;;;;;;7364398;19;19999;-73
2023/10/18 15:15:07;;;;;;;6.95;3.42;;;;;;;;;;7387441;19;20029;-73
2023/10/18 15:17:33;;;;;;;9.13;3.22;;;;;;;;;;7371406;19;20094;-73
2023/10/18 15:19:59;;;;;;;9.10;3.17;;;;;;;;;;7365770;19;20468;-74
2023/10/18 15:22:26;;;;;;;10.68;3.20;;;;;;;;;;7373699;19;20018;-72
2023/10/18 15:24:59;;;;;;;8.77;5.10;;;;;;;;;;7368792;19;20708;-73
2023/10/18 15:27:26;;;;;;;9.25;4.30;;;;;;;;;;7392441;19;20098;-73
2023/10/18 15:29:52;;;;;;;7.03;3.80;;;;;;;;;;7368974;19;20007;-71
2023/10/18 15:32:17;;;;;;;10.23;4.60;;;;;;;;;;7368701;19;20007;-73
2023/10/18 15:34:45;;;;;;;6.97;3.63;;;;;;;;;;7369675;19;20025;-73
2023/10/18 15:37:12;;;;;;;10.13;6.78;;;;;;;;;;7369933;19;20487;-74